메인 페이지
METAR-TAF:

METAR-TAF

공항 :

덴버, 콜로라도, 미국

덴버 국제공항

위도: 39-49-58N, 경도: 104-39-27W, 고도: 1655m

현재 날씨관측

예보는 25분 전, 20:53시(UTC)에 발표되었습니다.
남남동20kt, 순간 최대 풍속 33kt
온도 19°C
습도 14%
기압 1017 hPa
시정: 16.1km
고도 22000ft 상공 구름 보통

METAR: KDEN 192053Z 15020G33KT 10SM SCT220 19/M09 A3004 RMK AO2 PK WND 15034/2018 SLP139 T01891089 56035

시각: 15:18 (21:18 UTC)

예보

예보는 1 시간 12분 전, 20:06시(UTC)에 발표되었습니다.
예보 대상 시간: 19일 20시부터 20일 24시까지 (UTC)
남남동20kt, 순간 최대 풍속 28kt
시정: 10km
고도 22000ft 상공 구름 보통
19일 2200시부터 (UTC)
남남동25kt, 순간 최대 풍속 35kt
시정: 10km
고도 14000ft 상공 구름 조금
고도 22000ft 상공 구름 많음
20일 0100시부터 (UTC)
남남동28kt, 순간 최대 풍속 38kt
시정: 10km
고도 12000ft 상공 구름 보통
고도 22000ft 상공 구름 많음
20일 0800시부터 (UTC)
25kt, 순간 최대 풍속 35kt
시정: 10km
고도 12000ft 상공 구름 보통
고도 22000ft 상공 구름 많음
20일 1300시부터 (UTC)
남동20kt, 순간 최대 풍속 30kt
시정: 10km
고도 6000ft 상공 구름 많음
고도 12000ft 상공 구름 많음
20일 2000시부터 (UTC)
동남동18kt, 순간 최대 풍속 28kt
시정: 10km
고도 3000ft 상공 구름 많음
고도 6000ft 상공 흐림
약한소나기

TAF: KDEN 192006Z 1920/2024 16020G28KT P6SM SCT220 FM192200 16025G35KT P6SM FEW140 BKN220 FM200100 15028G38KT P6SM SCT120 BKN220 WS020/18055KT FM200800 17025G35KT P6SM SCT120 BKN220 FM201300 14020G30KT P6SM BKN060 BKN120 FM202000 12018G28KT P6SM -SHRA BKN030 OVC060

4,000개 이상의 공항 관측 자료 및 예보 (METAR 및 TAF 보고).

지도상에서 검색 가능한 기상관측소가 노란 점과 빨간 점으로 표시되어 있습니다.

기상관측소 명을 보려면 표시 위로 마우스를 이동하세요.

날씨 관측과 예보를 보려면 클릭하세요.

지도 변경 : 확대하려면 엑스 표시가 있는 녹색 버튼, 축소하려면 빼기 표시가 있는 녹색 버튼, 다음 페이지의 지도를 보려면 녹색 화살표를 클릭하세요.


METAR-TAF: